»·PEaware :: TBIRD8 KGTF-W43

TBIRD8 :: KGTF-W43

FLIGHT INFORMATION

Flight Status: Arrived
Operator: Unknown
More flights by this operator :: More flights under this callsign
Pilot: Kevin M. (7)
Aircraft: GENERAL DYNAMICS F-16 FIGHTING FALCON
(F16)
More flights by this aircraft type
Origin: KGTF Great Falls Intl
United States
Destination: W43 Hulett Municipal
United States
More flights between these airports :: More routes between these airports
Route: +SHR V86 KOCYE
File this flight plan on PilotEdge
Remarks: WUS Alphabet Challenge! These long legs call for afterburners
Altitude:
(Current/Filed)
39,000ft
Speed:
(Current/Filed)
555kts
Departed: 29-Jan-20 09:54 AM
Arrived: 29-Jan-20 10:36 AM
Distance/Time
Traveled:
329nm/0:42
Distance/Time
To Go:
Arrived

Flight Plot

Page will automatically refresh every two minutes.

Flight plan parsing failed; only flown route is shown


Map Options




Map Legend


Flown Route
Filed Route
Departure Airport
Arrival Airport
Navaid (VOR, NDB)
Fix

Horizontal Profiles

Position Reports

Time Latitude Longitude Heading Altitude Ground
Speed
29-Jan-20 09:42 47.486872 -111.354187 314 3658ft 0kts
29-Jan-20 09:43 47.486872 -111.354187 314 3658ft 0kts
29-Jan-20 09:44 47.486872 -111.354187 314 3658ft 0kts
29-Jan-20 09:45 47.486872 -111.354187 314 3658ft 0kts
29-Jan-20 09:46 47.486872 -111.354187 314 3658ft 0kts
29-Jan-20 09:47 47.486872 -111.354187 314 3658ft 0kts
29-Jan-20 09:48 47.486872 -111.354187 314 3658ft 0kts
29-Jan-20 09:49 47.488194 -111.353172 43 3650ft 16kts
29-Jan-20 09:50 47.488925 -111.352918 317 3647ft 0kts
29-Jan-20 09:51 47.488925 -111.352918 317 3647ft 0kts
29-Jan-20 09:52 47.488925 -111.352918 317 3647ft 0kts
29-Jan-20 09:53 47.487536 -111.356963 225 3663ft 135kts
29-Jan-20 09:54 47.440840 -111.313475 121 19886ft 384kts
29-Jan-20 09:55 47.384138 -111.197584 111 35808ft 351kts
29-Jan-20 09:56 47.299088 -111.039288 123 37509ft 631kts
29-Jan-20 09:57 47.187939 -110.846611 123 39160ft 613kts
29-Jan-20 09:58 47.077254 -110.655698 123 39176ft 613kts
29-Jan-20 09:59 46.965481 -110.464224 123 39173ft 613kts
29-Jan-20 10:00 46.853810 -110.274279 125 39143ft 614kts
29-Jan-20 10:01 46.741848 -110.085183 125 39140ft 614kts
29-Jan-20 10:02 46.629773 -109.897180 125 39137ft 613kts
29-Jan-20 10:03 46.516958 -109.709230 125 39144ft 614kts
29-Jan-20 10:04 46.404479 -109.523127 125 39145ft 613kts
29-Jan-20 10:05 46.291019 -109.336659 126 39159ft 616kts
29-Jan-20 10:06 46.177549 -109.151417 127 39183ft 616kts
29-Jan-20 10:07 46.064614 -108.968335 130 39179ft 603kts
29-Jan-20 10:08 45.953825 -108.789923 130 39192ft 598kts
29-Jan-20 10:09 45.842390 -108.611619 130 39186ft 598kts
29-Jan-20 10:10 45.730870 -108.434326 130 39174ft 598kts
29-Jan-20 10:11 45.620703 -108.260287 130 39182ft 598kts
29-Jan-20 10:12 45.508443 -108.084186 128 39174ft 602kts
29-Jan-20 10:13 45.394542 -107.906440 128 39181ft 604kts
29-Jan-20 10:14 45.280683 -107.730015 128 39221ft 602kts
29-Jan-20 10:15 45.166591 -107.554337 129 39193ft 604kts
29-Jan-20 10:16 45.052346 -107.379536 129 39190ft 601kts
29-Jan-20 10:17 44.938559 -107.206551 131 39188ft 595kts
29-Jan-20 10:18 44.835648 -107.025228 108 39189ft 582kts
29-Jan-20 10:19 44.792265 -106.803708 104 39180ft 586kts
29-Jan-20 10:21 44.748448 -106.581312 104 39174ft 587kts
29-Jan-20 10:22 44.704250 -106.359447 104 39152ft 587kts
29-Jan-20 10:23 44.659325 -106.136413 104 38462ft 591kts
29-Jan-20 10:24 44.613291 -105.910441 104 37239ft 605kts
29-Jan-20 10:25 44.566167 -105.681770 104 34294ft 608kts
29-Jan-20 10:26 44.518333 -105.452543 104 30309ft 614kts
29-Jan-20 10:27 44.469669 -105.221643 105 26317ft 621kts
29-Jan-20 10:28 44.419988 -104.988354 105 22315ft 628kts
29-Jan-20 10:29 44.444939 -104.762116 50 18260ft 583kts
29-Jan-20 10:30 44.557023 -104.623549 16 17013ft 477kts
29-Jan-20 10:31 44.666972 -104.587734 301 12644ft 377kts
29-Jan-20 10:32 44.670305 -104.671377 133 8347ft 255kts
29-Jan-20 10:33 44.637817 -104.588343 114 8244ft 230kts
29-Jan-20 10:34 44.627529 -104.508411 345 6919ft 264kts
29-Jan-20 10:35 44.662341 -104.567279 321 4211ft 112kts
29-Jan-20 10:36 44.667977 -104.571315 4 4184ft 12kts
29-Jan-20 10:37 44.668173 -104.571648 233 4184ft 0kts
29-Jan-20 10:38 44.668173 -104.571648 233 4184ft 0kts
29-Jan-20 10:39 44.668173 -104.571648 233 4184ft 0kts
29-Jan-20 10:40 44.668173 -104.571648 233 4184ft 0kts
29-Jan-20 10:40 44.668173 -104.571648 233 4184ft 0kts
29-Jan-20 10:42 44.668173 -104.571648 233 4184ft 0kts
29-Jan-20 10:43 44.668173 -104.571648 233 4184ft 0kts
29-Jan-20 10:43 44.668173 -104.571648 233 4184ft 0kts
29-Jan-20 10:44 44.668173 -104.571648 233 4184ft 0kts
29-Jan-20 10:46 44.668215 -104.571729 53 4180ft 0kts
29-Jan-20 10:46 44.668215 -104.571729 53 4180ft 0kts
29-Jan-20 10:47 44.668215 -104.571729 53 4180ft 0kts

Navigation Log

Ident Type
Flight plan parsing failed, navigation log unavailable